Corning, Iowa
Current Conditions -  °F | °C
As of 5:35 PM on Sunday 21 Dec 2014 (Local Time) from KCSQ Reporting Station
Haze Haze  
Wind Chill: -1°   Ceiling: 800
Heat Index:   Visibility: 4mi
Dew Point:   Wind: 15mph
Humidity: 100%   Direction: 170°S
Pressure: 29.79"   Gusts: NA
Location:  40.99°N, 94.74°W
Report Text: KCSQ 212335Z AUTO 17013KT 4SM BR OVC008 04/04 A2979 RMK AO2
Loading
Personal Weather Stations






























Interactive Weather Map New forecast layout! Learn more

10-Day Weather Forecast

Advertisements
Track Severe Weather on mobile